<?xml version="1.0" encoding="UTF-8" standalone="no" ?>
<gpx xmlns="http://www.topografix.com/GPX/1/1" xmlns:xsi="http://www.w3.org/2001/XMLSchema-instance" xsi:schemaLocation="http://www.topografix.com/GPX/1/1 http://www.topografix.com/GPX/1/1/gpx.xsd" version="1.1" creator="VisuGPX - https://www.visugpx.com">
  <metadata>
    <name>rando pédestre 2024 1</name>
  </metadata>
  <wpt lat="44.15053" lon="0.5803">
    <ele>95</ele>
    <name><![CDATA[Casse Croûte]]></name>
    <type><![CDATA[picnic]]></type>
    <extensions>
      <visugpx:TrackPointExtension xmlns:visugpx="https://www.visugpx.com/editgpx/">
        <visugpx:dec>-104,16</visugpx:dec>
      </visugpx:TrackPointExtension>
    </extensions>
  </wpt>
  <trk>
    <name><![CDATA[rando pédestre 2024 1]]></name>
    <extensions>
      <line xmlns="http://www.topografix.com/GPX/gpx_style/0/2">
        <color>0000FF</color>
        <width>4</width>
      </line>
    </extensions>
    <trkseg>
      <trkpt lat="44.14087" lon="0.55881">
        <ele>93</ele>
        <time>2024-01-14T06:52:12+01:00</time>
      </trkpt>
      <trkpt lat="44.14068" lon="0.55947">
        <ele>99</ele>
        <time>2024-01-14T06:52:18+01:00</time>
      </trkpt>
      <trkpt lat="44.14058" lon="0.55985">
        <ele>102</ele>
        <time>2024-01-14T06:52:44+01:00</time>
      </trkpt>
      <trkpt lat="44.14112" lon="0.5599">
        <ele>102</ele>
        <time>2024-01-14T06:52:47+01:00</time>
      </trkpt>
      <trkpt lat="44.14106" lon="0.56288">
        <ele>114</ele>
        <time>2024-01-14T06:53:17+01:00</time>
      </trkpt>
      <trkpt lat="44.14145" lon="0.56255">
        <ele>111</ele>
        <time>2024-01-14T06:53:43+01:00</time>
      </trkpt>
      <trkpt lat="44.14155" lon="0.56349">
        <ele>105</ele>
        <time>2024-01-14T06:53:46+01:00</time>
      </trkpt>
      <trkpt lat="44.14074" lon="0.56512">
        <ele>109</ele>
        <time>2024-01-14T06:53:49+01:00</time>
      </trkpt>
      <trkpt lat="44.14076" lon="0.56593">
        <ele>105</ele>
        <time>2024-01-14T06:53:52+01:00</time>
      </trkpt>
      <trkpt lat="44.14028" lon="0.56639">
        <ele>110</ele>
        <time>2024-01-14T06:53:54+01:00</time>
      </trkpt>
      <trkpt lat="44.14158" lon="0.57123">
        <ele>160</ele>
        <time>2024-01-14T06:53:59+01:00</time>
      </trkpt>
      <trkpt lat="44.14002" lon="0.57266">
        <ele>166</ele>
        <time>2024-01-14T06:54:18+01:00</time>
      </trkpt>
      <trkpt lat="44.14042" lon="0.5735">
        <ele>165</ele>
        <time>2024-01-14T06:54:22+01:00</time>
      </trkpt>
      <trkpt lat="44.14114" lon="0.57356">
        <ele>162</ele>
        <time>2024-01-14T06:54:24+01:00</time>
      </trkpt>
      <trkpt lat="44.14222" lon="0.57442">
        <ele>162</ele>
        <time>2024-01-14T06:54:27+01:00</time>
      </trkpt>
      <trkpt lat="44.14259" lon="0.57554">
        <ele>162</ele>
        <time>2024-01-14T06:54:29+01:00</time>
      </trkpt>
      <trkpt lat="44.14302" lon="0.5763">
        <ele>153</ele>
        <time>2024-01-14T06:54:32+01:00</time>
      </trkpt>
      <trkpt lat="44.14461" lon="0.57793">
        <ele>139</ele>
        <time>2024-01-14T06:54:37+01:00</time>
      </trkpt>
      <trkpt lat="44.14557" lon="0.57663">
        <ele>133</ele>
        <time>2024-01-14T06:54:41+01:00</time>
      </trkpt>
      <trkpt lat="44.14685" lon="0.577">
        <ele>134</ele>
        <time>2024-01-14T06:54:44+01:00</time>
      </trkpt>
      <trkpt lat="44.14692" lon="0.57874">
        <ele>132</ele>
        <time>2024-01-14T06:54:48+01:00</time>
      </trkpt>
      <trkpt lat="44.14913" lon="0.58079">
        <ele>107</ele>
        <time>2024-01-14T06:54:59+01:00</time>
      </trkpt>
      <trkpt lat="44.15034" lon="0.58014">
        <ele>106</ele>
        <time>2024-01-14T06:55:21+01:00</time>
      </trkpt>
      <trkpt lat="44.15211" lon="0.57942">
        <ele>105</ele>
        <time>2024-01-14T06:56:03+01:00</time>
      </trkpt>
      <trkpt lat="44.15798" lon="0.57674">
        <ele>88</ele>
        <time>2024-01-14T06:56:09+01:00</time>
      </trkpt>
      <trkpt lat="44.15632" lon="0.57365">
        <ele>104</ele>
        <time>2024-01-14T06:56:22+01:00</time>
      </trkpt>
      <trkpt lat="44.15445" lon="0.571">
        <ele>126</ele>
        <time>2024-01-14T07:03:10+01:00</time>
      </trkpt>
      <trkpt lat="44.15298" lon="0.57012">
        <ele>135</ele>
        <time>2024-01-14T07:03:12+01:00</time>
      </trkpt>
      <trkpt lat="44.1517" lon="0.56841">
        <ele>139</ele>
        <time>2024-01-14T07:03:15+01:00</time>
      </trkpt>
      <trkpt lat="44.15124" lon="0.56548">
        <ele>161</ele>
        <time>2024-01-14T07:03:19+01:00</time>
      </trkpt>
      <trkpt lat="44.14911" lon="0.56478">
        <ele>161</ele>
        <time>2024-01-14T07:03:22+01:00</time>
      </trkpt>
      <trkpt lat="44.1473" lon="0.56351">
        <ele>135</ele>
        <time>2024-01-14T07:03:28+01:00</time>
      </trkpt>
      <trkpt lat="44.14544" lon="0.56118">
        <ele>105</ele>
        <time>2024-01-14T07:03:32+01:00</time>
      </trkpt>
      <trkpt lat="44.14437" lon="0.56096">
        <ele>95</ele>
        <time>2024-01-14T07:03:51+01:00</time>
      </trkpt>
      <trkpt lat="44.14517" lon="0.55992">
        <ele>95</ele>
        <time>2024-01-14T07:03:56+01:00</time>
      </trkpt>
      <trkpt lat="44.14732" lon="0.55947">
        <ele>91</ele>
        <time>2024-01-14T07:03:58+01:00</time>
      </trkpt>
      <trkpt lat="44.14837" lon="0.55985">
        <ele>108</ele>
        <time>2024-01-14T07:04:00+01:00</time>
      </trkpt>
      <trkpt lat="44.14885" lon="0.55881">
        <ele>91</ele>
        <time>2024-01-14T07:04:02+01:00</time>
      </trkpt>
      <trkpt lat="44.15027" lon="0.5577">
        <ele>87</ele>
        <time>2024-01-14T07:04:05+01:00</time>
      </trkpt>
      <trkpt lat="44.14888" lon="0.55458">
        <ele>99</ele>
        <time>2024-01-14T07:04:09+01:00</time>
      </trkpt>
      <trkpt lat="44.14947" lon="0.55356">
        <ele>100</ele>
        <time>2024-01-14T07:04:12+01:00</time>
      </trkpt>
      <trkpt lat="44.14966" lon="0.54713">
        <ele>118</ele>
        <time>2024-01-14T07:04:25+01:00</time>
      </trkpt>
      <trkpt lat="44.14885" lon="0.54598">
        <ele>133</ele>
        <time>2024-01-14T07:04:32+01:00</time>
      </trkpt>
      <trkpt lat="44.14614" lon="0.54418">
        <ele>169</ele>
        <time>2024-01-14T07:04:35+01:00</time>
      </trkpt>
      <trkpt lat="44.1426" lon="0.54256">
        <ele>170</ele>
        <time>2024-01-14T07:04:41+01:00</time>
      </trkpt>
      <trkpt lat="44.14076" lon="0.54084">
        <ele>172</ele>
        <time>2024-01-14T07:04:43+01:00</time>
      </trkpt>
      <trkpt lat="44.13925" lon="0.53748">
        <ele>173</ele>
        <time>2024-01-14T07:04:46+01:00</time>
      </trkpt>
      <trkpt lat="44.1378" lon="0.53616">
        <ele>158</ele>
        <time>2024-01-14T07:04:52+01:00</time>
      </trkpt>
      <trkpt lat="44.13657" lon="0.53715">
        <ele>146</ele>
        <time>2024-01-14T07:04:56+01:00</time>
      </trkpt>
      <trkpt lat="44.13737" lon="0.5418">
        <ele>125</ele>
        <time>2024-01-14T07:04:58+01:00</time>
      </trkpt>
      <trkpt lat="44.13617" lon="0.5431">
        <ele>110</ele>
        <time>2024-01-14T07:05:03+01:00</time>
      </trkpt>
      <trkpt lat="44.13815" lon="0.54761">
        <ele>100</ele>
        <time>2024-01-14T07:05:06+01:00</time>
      </trkpt>
      <trkpt lat="44.13707" lon="0.54833">
        <ele>110</ele>
        <time>2024-01-14T07:05:09+01:00</time>
      </trkpt>
      <trkpt lat="44.13896" lon="0.55387">
        <ele>103</ele>
        <time>2024-01-14T07:05:16+01:00</time>
      </trkpt>
      <trkpt lat="44.13945" lon="0.55704">
        <ele>94</ele>
        <time>2024-01-14T07:05:19+01:00</time>
      </trkpt>
      <trkpt lat="44.14003" lon="0.55738">
        <ele>89</ele>
        <time>2024-01-14T07:05:26+01:00</time>
      </trkpt>
      <trkpt lat="44.14046" lon="0.55933">
        <ele>98</ele>
        <time>2024-01-14T07:07:40+01:00</time>
      </trkpt>
    </trkseg>
  </trk>
</gpx>